首页
METAR-TAF:

METAR-TAF

机场 :

Lakenheath, 英格兰

纬度: 52-25N, 经度: 000-34E, 海拔: 10米

当前天气观测

该预报发布于58分钟前的18:56 UTC
风速23节,风向西南,有时为28节阵风
温度 10°C
湿度 66%
气压 1016 hPa
能见度10公里或以上
多云层高于3800英尺

METAR: EGUL 211856Z AUTO 23023G28KT 9999 BKN038 10/04 A3001 RMK AO2 PK WND 24031/43 SLP166 T01000039 $

时间: 19:54 (19:54 UTC)

预报

该预报发布于3小时和24分钟前的16:30 UTC
预报有效从21日的 16点(UTC)到 22日的 19点(UTC)
风速15节,风向西南,有时为25节阵风
能见度10公里或以上
多云层高于3500英尺
阴天层高于10000英尺
短暂存在
从 21日的 16点(UTC)到 21日的 21点(UTC)
风速25节,风向西南,有时为35节阵风
成为
从 21日的 20点(UTC)到 21日的 21点(UTC)
风速25节,风向西南,有时为35节阵风
能见度10公里或以上
多云层高于2000英尺
多云层高于6500英尺
成为
从 22日的 01点(UTC)到 22日的 02点(UTC)
风速25节,风向西南,有时为35节阵风
能见度10公里或以上
阴天层高于1800英尺
成为
从 22日的 07点(UTC)到 22日的 08点(UTC)
风速25节,风向西转西南,有时为35节阵风
能见度10公里或以上
阴天层高于2000英尺
短暂存在
从 22日的 08点(UTC)到 22日的 13点(UTC)
风速35节,风向西转西南,有时为45节阵风
能見度: 2405

TAF: EGUL 211630Z 2116/2219 23015G25KT 9999 BKN035 OVC100 QNH2999INS TEMPO 2116/2121 23025G35KT 510003 BECMG 2120/2121 23025G35KT 9999 BKN020 BKN065 510003 QNH2991INS BECMG 2201/2202 23025G35KT 9999 OVC018 510003 QNH2988INS BECMG 2207/2208 24025G35KT 9999 OVC020 510003 QNH2991INS TEMPO 2208/2213 24035G45KT 540003 TX12/2213Z TN08/2201Z LAST NO AMDS AFT 2116 NEXT 2405

超过4000个机场的气象观测和天气预报(METAR&TAF报告)。

可查询的气象台以黄色和红色小点在地图上表示。

将鼠标移到小点上方,可查看气象台名称。

然后点击查看天气观测和预报。

如需切换地图:点击带黑十字的绿色按钮放大地图;点击带横线的绿色按钮缩小地图;或者点击绿色箭头查看邻近地区的地图。


METAR-TAF: